createdAt,value
2022-10-06T00:01:56.509Z,5.69
2022-10-06T00:04:22.873Z,5.30
2022-10-06T00:06:49.214Z,6.16
2022-10-06T00:09:15.564Z,5.79
2022-10-06T00:11:41.895Z,6.14
2022-10-06T00:14:08.236Z,5.86
2022-10-06T00:16:34.582Z,5.20
2022-10-06T00:19:00.913Z,5.25
2022-10-06T00:21:27.246Z,6.04
2022-10-06T00:23:53.589Z,6.09
2022-10-06T00:26:19.936Z,5.86
2022-10-06T00:28:46.376Z,5.80
2022-10-06T00:31:12.809Z,5.69
2022-10-06T00:33:39.190Z,5.94
2022-10-06T00:36:05.541Z,5.41
2022-10-06T00:38:32.240Z,5.07
2022-10-06T00:40:58.942Z,5.06
2022-10-06T00:43:25.294Z,5.21
2022-10-06T00:45:51.654Z,4.96
2022-10-06T00:48:17.997Z,4.90
2022-10-06T00:50:44.328Z,4.66
2022-10-06T00:53:10.661Z,4.29
2022-10-06T00:55:36.998Z,4.23
2022-10-06T00:58:03.333Z,4.37
2022-10-06T01:00:29.660Z,4.54
2022-10-06T01:02:56.085Z,4.44
2022-10-06T01:05:22.500Z,5.13
2022-10-06T01:07:48.843Z,4.88
2022-10-06T01:10:15.196Z,4.95
2022-10-06T01:12:41.538Z,5.04
2022-10-06T01:15:07.879Z,4.60
2022-10-06T01:17:34.206Z,4.63
2022-10-06T01:20:00.530Z,4.81
2022-10-06T01:22:26.882Z,4.52
2022-10-06T01:24:53.226Z,4.47
2022-10-06T01:27:19.577Z,4.07
2022-10-06T01:29:45.912Z,4.21
2022-10-06T01:32:12.249Z,4.26
2022-10-06T01:34:38.577Z,4.43
2022-10-06T01:37:04.922Z,4.50
2022-10-06T01:39:31.258Z,4.24
2022-10-06T01:41:57.609Z,4.77
2022-10-06T01:44:23.968Z,4.80
2022-10-06T01:46:50.336Z,4.39
2022-10-06T01:49:16.698Z,4.23
2022-10-06T01:51:43.027Z,4.73
2022-10-06T01:54:09.353Z,4.68
2022-10-06T01:56:35.698Z,4.51
2022-10-06T01:59:02.036Z,4.18
2022-10-06T02:01:28.390Z,4.56
2022-10-06T02:03:54.735Z,4.93
2022-10-06T02:06:21.117Z,5.15
2022-10-06T02:08:47.504Z,5.22
2022-10-06T02:11:13.841Z,5.09
2022-10-06T02:13:40.173Z,4.83
2022-10-06T02:16:06.758Z,4.54
2022-10-06T02:18:33.250Z,4.89
2022-10-06T02:20:59.602Z,4.80
2022-10-06T02:23:25.939Z,4.94
2022-10-06T02:25:52.282Z,4.45
2022-10-06T02:28:18.670Z,4.93
2022-10-06T02:30:45.075Z,4.47
2022-10-06T02:33:11.415Z,4.67
2022-10-06T02:35:37.750Z,4.41
2022-10-06T02:38:04.098Z,4.24
2022-10-06T02:40:30.442Z,4.54
2022-10-06T02:42:56.812Z,4.97
2022-10-06T02:45:23.166Z,4.88
2022-10-06T02:47:49.500Z,5.19
2022-10-06T02:50:15.864Z,4.78
2022-10-06T02:52:42.245Z,4.56
2022-10-06T02:55:08.582Z,3.99
2022-10-06T02:57:34.916Z,3.97
2022-10-06T03:00:01.249Z,3.92
2022-10-06T03:02:27.714Z,4.03
2022-10-06T03:04:54.095Z,4.31
2022-10-06T03:07:20.423Z,4.60
2022-10-06T03:09:46.777Z,4.22
2022-10-06T03:12:13.130Z,3.90
2022-10-06T03:14:39.466Z,4.28
2022-10-06T03:17:05.796Z,3.65
2022-10-06T03:19:32.133Z,3.62
2022-10-06T03:21:58.477Z,3.76
2022-10-06T03:24:24.798Z,4.07
2022-10-06T03:26:51.132Z,4.78
2022-10-06T03:29:17.470Z,4.35
2022-10-06T03:31:43.882Z,4.29
2022-10-06T03:34:10.289Z,4.39
2022-10-06T03:36:36.627Z,4.59
2022-10-06T03:39:02.956Z,4.78
2022-10-06T03:41:29.301Z,4.70
2022-10-06T03:43:55.643Z,4.85
2022-10-06T03:46:22.051Z,4.69
2022-10-06T03:48:48.413Z,4.39
2022-10-06T03:51:14.746Z,4.77
2022-10-06T03:53:41.080Z,4.90
2022-10-06T03:56:07.413Z,5.13
2022-10-06T03:58:33.745Z,4.73
2022-10-06T04:01:00.156Z,4.40
2022-10-06T04:03:26.578Z,4.66
2022-10-06T04:05:52.919Z,4.92
2022-10-06T04:08:19.256Z,4.87
2022-10-06T04:10:45.586Z,4.67
2022-10-06T04:13:11.921Z,4.83
2022-10-06T04:15:38.258Z,4.32
2022-10-06T04:18:04.584Z,4.35
2022-10-06T04:20:30.937Z,4.22
2022-10-06T04:22:57.277Z,4.29
2022-10-06T04:25:23.604Z,4.09
2022-10-06T04:27:49.954Z,4.80
2022-10-06T04:30:16.284Z,4.35
2022-10-06T04:32:42.619Z,4.29
2022-10-06T04:35:08.954Z,4.59
2022-10-06T04:37:35.288Z,5.02
2022-10-06T04:40:01.621Z,5.14
2022-10-06T04:42:31.294Z,4.48
2022-10-06T04:45:00.388Z,4.62
2022-10-06T04:47:26.720Z,5.05
2022-10-06T04:49:53.053Z,5.10
2022-10-06T04:52:19.398Z,4.22
2022-10-06T04:54:45.738Z,4.23
2022-10-06T04:57:12.077Z,4.23
2022-10-06T04:59:38.427Z,4.31
2022-10-06T05:02:04.833Z,4.51
2022-10-06T05:04:31.210Z,4.64
2022-10-06T05:06:57.557Z,4.80
2022-10-06T05:09:23.889Z,4.17
2022-10-06T05:11:50.230Z,4.20
2022-10-06T05:14:16.582Z,4.03
2022-10-06T05:16:43.062Z,4.39
2022-10-06T05:19:09.494Z,4.24
2022-10-06T05:21:35.827Z,4.30
2022-10-06T05:24:02.172Z,4.70
2022-10-06T05:26:28.503Z,5.05
2022-10-06T05:28:54.837Z,5.13
2022-10-06T05:31:21.210Z,4.63
2022-10-06T05:33:47.607Z,4.47
2022-10-06T05:36:13.955Z,4.50
2022-10-06T05:38:40.303Z,4.97
2022-10-06T05:41:06.667Z,4.94
2022-10-06T05:43:33.017Z,4.53
2022-10-06T05:45:59.417Z,4.39
2022-10-06T05:48:26.191Z,4.19
2022-10-06T05:50:52.823Z,4.11
2022-10-06T05:53:19.165Z,4.08
2022-10-06T05:55:45.521Z,4.81
2022-10-06T05:58:14.198Z,5.28
2022-10-06T06:00:44.118Z,4.67
2022-10-06T06:03:10.468Z,4.17
2022-10-06T06:05:36.805Z,4.40
2022-10-06T06:08:03.143Z,4.94
2022-10-06T06:10:29.481Z,4.94
2022-10-06T06:12:55.809Z,4.84
2022-10-06T06:15:22.151Z,4.62
2022-10-06T06:17:48.485Z,4.86
2022-10-06T06:20:14.808Z,4.72
2022-10-06T06:22:41.128Z,4.86
2022-10-06T06:25:07.454Z,5.69
2022-10-06T06:27:33.782Z,5.58
2022-10-06T06:30:00.153Z,5.72
2022-10-06T06:32:26.497Z,5.01
2022-10-06T06:34:52.842Z,5.10
2022-10-06T06:37:19.186Z,5.23
2022-10-06T06:39:45.541Z,4.91
2022-10-06T06:42:11.879Z,5.35
2022-10-06T06:44:38.222Z,5.10
2022-10-06T06:47:04.559Z,5.19
2022-10-06T06:49:30.910Z,5.62
2022-10-06T06:51:57.236Z,5.28
2022-10-06T06:54:23.558Z,5.17
2022-10-06T06:56:49.904Z,4.88
2022-10-06T06:59:16.254Z,4.93
2022-10-06T07:01:42.674Z,5.09
2022-10-06T07:04:09.165Z,4.61
2022-10-06T07:06:35.519Z,4.85
2022-10-06T07:09:01.853Z,4.78
2022-10-06T07:11:28.188Z,4.34
2022-10-06T07:13:54.533Z,4.47
2022-10-06T07:16:20.958Z,4.85
2022-10-06T07:18:47.322Z,4.88
2022-10-06T07:21:13.644Z,4.77
2022-10-06T07:23:39.975Z,4.43
2022-10-06T07:26:06.329Z,4.38
2022-10-06T07:28:32.700Z,4.50
2022-10-06T07:30:59.065Z,4.60
2022-10-06T07:33:25.437Z,4.81
2022-10-06T07:35:51.786Z,4.34
2022-10-06T07:38:18.117Z,4.43
2022-10-06T07:40:50.589Z,4.37
2022-10-06T07:43:27.379Z,4.73
2022-10-06T07:45:53.763Z,4.50
2022-10-06T07:48:20.105Z,4.64
2022-10-06T07:50:46.438Z,5.21
2022-10-06T07:53:12.760Z,6.15
2022-10-06T07:55:39.098Z,4.90
2022-10-06T07:58:05.436Z,4.86
2022-10-06T08:03:03.086Z,4.55
2022-10-06T08:05:29.487Z,4.41
2022-10-06T08:07:55.908Z,4.21
2022-10-06T08:10:22.267Z,4.65
2022-10-06T08:12:48.682Z,4.42
2022-10-06T08:15:15.037Z,4.43
2022-10-06T08:17:41.377Z,4.44
2022-10-06T08:20:07.721Z,4.39
2022-10-06T08:22:34.045Z,4.52
2022-10-06T08:25:07.666Z,4.73
2022-10-06T08:27:34.331Z,4.54
2022-10-06T08:30:00.659Z,4.41
2022-10-06T08:32:26.992Z,5.27
2022-10-06T08:34:53.568Z,5.59
2022-10-06T08:37:20.650Z,5.27
2022-10-06T08:39:47.144Z,5.46
2022-10-06T08:42:13.480Z,5.34
2022-10-06T08:44:39.807Z,4.94
2022-10-06T08:47:06.149Z,5.05
2022-10-06T08:49:32.489Z,5.68
2022-10-06T08:51:58.836Z,5.49
2022-10-06T08:54:25.176Z,4.77
2022-10-06T08:56:51.522Z,4.64
2022-10-06T08:59:17.865Z,4.66
2022-10-06T09:01:44.323Z,4.44
2022-10-06T09:04:10.737Z,4.40
2022-10-06T09:06:37.081Z,4.68
2022-10-06T09:09:03.437Z,4.50
2022-10-06T09:11:29.774Z,3.79
2022-10-06T09:13:56.116Z,4.17
2022-10-06T09:16:22.551Z,4.35
2022-10-06T09:19:07.774Z,4.38
2022-10-06T09:21:34.837Z,4.14
2022-10-06T09:24:01.198Z,4.67
2022-10-06T09:26:27.557Z,5.10
2022-10-06T09:28:53.903Z,4.89
2022-10-06T09:31:20.302Z,4.47
2022-10-06T09:33:46.706Z,4.09
2022-10-06T09:36:13.049Z,4.18
2022-10-06T09:38:39.384Z,4.94
2022-10-06T09:41:05.737Z,5.11
2022-10-06T09:43:32.084Z,5.00
2022-10-06T09:45:58.485Z,4.74
2022-10-06T09:48:25.341Z,5.16
2022-10-06T09:50:51.829Z,5.40
2022-10-06T09:53:18.173Z,5.33
2022-10-06T09:55:44.513Z,5.52
2022-10-06T09:58:10.843Z,5.70
2022-10-06T10:00:37.231Z,6.02
2022-10-06T10:03:03.660Z,6.52
2022-10-06T10:05:30.033Z,6.75
2022-10-06T10:07:56.368Z,5.60
2022-10-06T10:10:22.710Z,6.13
2022-10-06T10:12:49.054Z,6.07
2022-10-06T10:15:15.410Z,5.23
2022-10-06T10:17:41.787Z,4.83
2022-10-06T10:20:08.115Z,4.57
2022-10-06T10:22:34.445Z,4.65
2022-10-06T10:25:00.776Z,4.68
2022-10-06T10:27:27.111Z,4.71
2022-10-06T10:29:53.451Z,4.75
2022-10-06T10:32:19.799Z,4.46
2022-10-06T10:34:46.159Z,4.69
2022-10-06T10:37:12.505Z,4.45
2022-10-06T10:39:38.861Z,4.54
2022-10-06T10:42:05.196Z,5.21
2022-10-06T10:44:31.533Z,5.75
2022-10-06T10:46:57.916Z,5.52
2022-10-06T10:49:24.265Z,4.65
2022-10-06T10:51:50.613Z,4.82
2022-10-06T10:54:16.948Z,4.82
2022-10-06T10:56:43.297Z,4.42
2022-10-06T10:59:09.661Z,4.43
2022-10-06T11:01:36.055Z,4.50
2022-10-06T11:04:02.410Z,4.77
2022-10-06T11:06:28.757Z,4.45
2022-10-06T11:08:55.113Z,4.14
2022-10-06T11:11:21.458Z,4.38
2022-10-06T11:13:47.806Z,4.36
2022-10-06T11:16:14.189Z,4.57
2022-10-06T11:18:40.529Z,4.31
2022-10-06T11:21:06.851Z,3.93
2022-10-06T11:23:33.184Z,4.17
2022-10-06T11:25:59.540Z,4.45
2022-10-06T11:28:25.901Z,4.19
2022-10-06T11:30:52.374Z,4.34
2022-10-06T11:33:19.796Z,4.49
2022-10-06T11:35:46.133Z,4.21
2022-10-06T11:38:12.468Z,11.55
2022-10-06T11:40:38.816Z,9.39
2022-10-06T11:43:05.145Z,7.20
2022-10-06T11:45:31.489Z,4.75
2022-10-06T11:47:57.864Z,4.91
2022-10-06T11:50:24.207Z,4.63
2022-10-06T11:52:50.546Z,4.74
2022-10-06T11:55:16.881Z,4.67
2022-10-06T11:57:43.223Z,4.40
2022-10-06T12:00:09.564Z,4.35
2022-10-06T12:02:36.069Z,4.29
2022-10-06T12:05:02.531Z,4.34
2022-10-06T12:07:28.871Z,4.54
2022-10-06T12:09:55.219Z,4.17
2022-10-06T12:12:21.556Z,4.31
2022-10-06T12:17:34.214Z,4.68
2022-10-06T12:20:00.562Z,4.34
2022-10-06T12:22:26.906Z,4.32
2022-10-06T12:24:53.233Z,4.03
2022-10-06T12:27:22.055Z,4.02
2022-10-06T12:29:51.467Z,4.12
2022-10-06T12:32:17.804Z,4.01
2022-10-06T12:34:44.152Z,3.84
2022-10-06T12:37:10.487Z,3.97
2022-10-06T12:39:36.833Z,3.79
2022-10-06T12:42:03.176Z,3.94
2022-10-06T12:44:29.511Z,4.24
2022-10-06T12:46:55.854Z,4.12
2022-10-06T12:49:22.193Z,4.06
2022-10-06T12:51:48.526Z,3.94
2022-10-06T12:54:14.900Z,3.75
2022-10-06T12:56:41.236Z,4.17
2022-10-06T12:59:07.586Z,3.93
2022-10-06T13:01:33.993Z,3.96
2022-10-06T13:04:00.360Z,4.04
2022-10-06T13:06:26.693Z,4.24
2022-10-06T13:08:53.033Z,4.29
2022-10-06T13:11:19.378Z,4.29
2022-10-06T13:13:45.733Z,4.32
2022-10-06T13:16:12.088Z,4.18
2022-10-06T13:18:38.423Z,4.03
2022-10-06T13:21:04.745Z,3.79
2022-10-06T13:23:31.088Z,4.01
2022-10-06T13:25:57.417Z,3.51
2022-10-06T13:28:23.824Z,3.52
2022-10-06T13:30:50.296Z,3.61
2022-10-06T13:33:16.681Z,3.54
2022-10-06T13:35:43.007Z,3.80
2022-10-06T13:38:09.370Z,3.68
2022-10-06T13:40:50.586Z,3.76
2022-10-06T13:43:16.958Z,3.51
2022-10-06T13:45:43.303Z,3.34
2022-10-06T13:48:09.643Z,3.30
2022-10-06T13:50:35.977Z,3.24
2022-10-06T13:53:02.326Z,3.19
2022-10-06T13:55:28.675Z,3.38
2022-10-06T13:57:55.005Z,3.39
2022-10-06T14:00:21.337Z,3.45
2022-10-06T14:02:47.740Z,3.33
2022-10-06T14:05:14.167Z,3.04
2022-10-06T14:07:40.506Z,3.18
2022-10-06T14:10:06.866Z,2.97
2022-10-06T14:12:33.220Z,3.06
2022-10-06T14:14:59.788Z,2.92
2022-10-06T14:17:26.386Z,3.12
2022-10-06T14:19:52.740Z,2.99
2022-10-06T14:22:19.082Z,3.10
2022-10-06T14:24:45.422Z,2.86
2022-10-06T14:27:11.782Z,3.11
2022-10-06T14:29:38.207Z,3.11
2022-10-06T14:32:04.571Z,2.83
2022-10-06T14:34:30.914Z,2.88
2022-10-06T14:36:57.248Z,2.97
2022-10-06T14:39:23.618Z,3.08
2022-10-06T14:41:49.959Z,2.78
2022-10-06T14:44:16.348Z,2.82
2022-10-06T14:46:42.779Z,3.06
2022-10-06T14:49:09.136Z,3.01
2022-10-06T14:51:36.872Z,2.89
2022-10-06T14:54:03.632Z,3.02
2022-10-06T14:56:29.985Z,2.94
2022-10-06T14:58:56.327Z,3.20
2022-10-06T15:01:22.678Z,3.16
2022-10-06T15:03:49.348Z,2.90
2022-10-06T15:06:15.834Z,2.99
2022-10-06T15:08:42.168Z,3.02
2022-10-06T15:11:08.512Z,3.06
2022-10-06T15:13:34.853Z,2.84
2022-10-06T15:16:01.232Z,2.88
2022-10-06T15:18:27.593Z,2.92
2022-10-06T15:20:53.935Z,3.15
2022-10-06T15:23:20.270Z,3.04
2022-10-06T15:25:46.608Z,3.14
2022-10-06T15:28:12.988Z,3.31
2022-10-06T15:30:39.337Z,3.26
2022-10-06T15:33:05.674Z,3.44
2022-10-06T15:35:32.007Z,3.43
2022-10-06T15:37:58.343Z,3.25
2022-10-06T15:40:24.692Z,3.66
2022-10-06T15:42:51.034Z,3.55
2022-10-06T15:45:17.369Z,3.52
2022-10-06T15:47:43.715Z,3.38
2022-10-06T15:50:10.841Z,3.62
2022-10-06T15:52:39.312Z,3.18
2022-10-06T15:55:05.655Z,3.73
2022-10-06T15:57:32.001Z,3.39
2022-10-06T15:59:58.350Z,3.21
2022-10-06T16:02:24.806Z,3.31
2022-10-06T16:04:51.209Z,3.40
2022-10-06T16:07:17.539Z,3.39
2022-10-06T16:09:43.880Z,3.67
2022-10-06T16:12:10.233Z,3.73
2022-10-06T16:14:36.578Z,3.58
2022-10-06T16:17:02.911Z,3.59
2022-10-06T16:19:29.284Z,3.45
2022-10-06T16:21:58.976Z,3.85
2022-10-06T16:24:25.621Z,3.65
2022-10-06T16:26:51.941Z,3.74
2022-10-06T16:29:18.284Z,3.87
2022-10-06T16:31:44.784Z,3.88
2022-10-06T16:34:11.298Z,3.71
2022-10-06T16:36:37.636Z,3.82
2022-10-06T16:39:03.966Z,3.62
2022-10-06T16:41:30.296Z,4.03
2022-10-06T16:43:56.643Z,4.35
2022-10-06T16:46:23.013Z,4.03
2022-10-06T16:48:49.412Z,4.23
2022-10-06T16:51:15.757Z,4.00
2022-10-06T16:53:42.098Z,4.04
2022-10-06T16:56:08.452Z,3.90
2022-10-06T16:58:34.778Z,4.03
2022-10-06T17:01:01.170Z,4.29
2022-10-06T17:03:27.544Z,4.08
2022-10-06T17:05:53.872Z,4.39
2022-10-06T17:08:20.208Z,4.07
2022-10-06T17:10:46.545Z,4.13
2022-10-06T17:13:12.875Z,4.37
2022-10-06T17:15:39.240Z,4.28
2022-10-06T17:18:05.578Z,7.71
2022-10-06T17:20:31.908Z,4.40
2022-10-06T17:22:58.235Z,4.32
2022-10-06T17:25:24.581Z,4.50
2022-10-06T17:27:50.906Z,4.58
2022-10-06T17:30:17.254Z,4.52
2022-10-06T17:32:43.803Z,4.92
2022-10-06T17:35:10.161Z,4.50
2022-10-06T17:37:36.488Z,4.44
2022-10-06T17:40:02.828Z,4.52
2022-10-06T17:42:29.165Z,4.65
2022-10-06T17:44:55.496Z,4.77
2022-10-06T17:47:21.842Z,4.47
2022-10-06T17:49:48.162Z,4.78
2022-10-06T17:52:14.496Z,5.03
2022-10-06T17:54:40.861Z,4.85
2022-10-06T17:57:07.199Z,5.27
2022-10-06T17:59:33.533Z,5.23
2022-10-06T18:01:59.993Z,5.02
2022-10-06T18:04:26.405Z,4.86
2022-10-06T18:06:52.751Z,4.83
2022-10-06T18:09:19.111Z,4.85
2022-10-06T18:11:45.441Z,5.18
2022-10-06T18:14:11.807Z,5.27
2022-10-06T18:16:38.220Z,5.01
2022-10-06T18:19:04.612Z,5.14
2022-10-06T18:21:30.956Z,5.13
2022-10-06T18:23:57.298Z,5.18
2022-10-06T18:26:23.646Z,4.98
2022-10-06T18:28:49.993Z,5.09
2022-10-06T18:31:16.411Z,5.71
2022-10-06T18:35:57.698Z,5.28
2022-10-06T18:36:29.100Z,5.09
2022-10-06T18:38:55.446Z,5.40
2022-10-06T18:41:21.781Z,5.41
2022-10-06T18:43:48.124Z,5.73
2022-10-06T18:46:14.493Z,6.29
2022-10-06T18:48:40.850Z,6.39
2022-10-06T18:51:07.225Z,6.75
2022-10-06T18:53:33.552Z,6.51
2022-10-06T18:55:59.907Z,7.03
2022-10-06T18:58:26.234Z,7.02
2022-10-06T19:00:52.626Z,7.19
2022-10-06T19:03:19.146Z,7.22
2022-10-06T19:05:45.486Z,6.28
2022-10-06T19:08:11.819Z,6.29
2022-10-06T19:10:38.163Z,6.79
2022-10-06T19:13:04.488Z,6.62
2022-10-06T19:15:30.812Z,6.26
2022-10-06T19:17:57.165Z,6.34
2022-10-06T19:20:23.508Z,6.22
2022-10-06T19:22:49.840Z,6.36
2022-10-06T19:25:16.180Z,6.13
2022-10-06T19:27:42.738Z,6.16
2022-10-06T19:30:09.227Z,5.68
2022-10-06T19:32:35.554Z,5.99
2022-10-06T19:35:04.290Z,5.86
2022-10-06T19:37:34.167Z,5.89
2022-10-06T19:40:00.498Z,5.97
2022-10-06T19:42:26.831Z,5.70
2022-10-06T19:44:53.173Z,5.70
2022-10-06T19:47:19.515Z,5.54
2022-10-06T19:49:45.869Z,5.64
2022-10-06T19:52:12.223Z,5.40
2022-10-06T19:54:38.564Z,5.32
2022-10-06T19:57:05.795Z,5.62
2022-10-06T19:59:32.295Z,5.75
2022-10-06T20:01:58.626Z,5.47
2022-10-06T20:04:25.033Z,5.45
2022-10-06T20:06:51.435Z,5.34
2022-10-06T20:09:17.774Z,5.47
2022-10-06T20:11:44.103Z,5.46
2022-10-06T20:14:10.441Z,5.36
2022-10-06T20:16:36.825Z,5.48
2022-10-06T20:19:03.227Z,5.85
2022-10-06T20:21:29.634Z,5.57
2022-10-06T20:23:55.974Z,5.59
2022-10-06T20:26:22.313Z,5.71
2022-10-06T20:28:48.710Z,5.43
2022-10-06T20:31:15.159Z,5.40
2022-10-06T20:33:41.510Z,5.07
2022-10-06T20:36:07.903Z,5.21
2022-10-06T20:38:34.256Z,5.68
2022-10-06T20:41:00.598Z,5.63
2022-10-06T20:43:26.946Z,5.40
2022-10-06T20:45:53.367Z,5.35
2022-10-06T20:48:19.715Z,5.31
2022-10-06T20:50:46.063Z,5.42
2022-10-06T20:53:12.398Z,5.61
2022-10-06T20:55:38.734Z,5.30
2022-10-06T20:58:05.097Z,5.13
2022-10-06T21:00:31.479Z,4.97
2022-10-06T21:02:57.874Z,4.90
2022-10-06T21:05:24.275Z,5.04
2022-10-06T21:07:50.628Z,5.06
2022-10-06T21:10:16.982Z,5.39
2022-10-06T21:12:43.352Z,5.57
2022-10-06T21:15:09.713Z,5.70
2022-10-06T21:17:36.075Z,5.44
2022-10-06T21:20:02.461Z,5.50
2022-10-06T21:22:28.826Z,5.51
2022-10-06T21:24:55.186Z,5.43
2022-10-06T21:27:21.566Z,5.32
2022-10-06T21:29:47.926Z,5.66
2022-10-06T21:32:14.294Z,5.66
2022-10-06T21:34:40.644Z,5.27
2022-10-06T21:37:07.023Z,5.72
2022-10-06T21:39:33.387Z,5.55
2022-10-06T21:41:59.749Z,5.65
2022-10-06T21:44:26.129Z,5.63
2022-10-06T21:46:52.573Z,6.07
2022-10-06T21:49:18.992Z,5.86
2022-10-06T21:51:45.378Z,5.92
2022-10-06T21:54:11.746Z,6.01
2022-10-06T21:56:38.114Z,5.73
2022-10-06T21:59:04.474Z,5.75
2022-10-06T22:01:30.919Z,5.56
2022-10-06T22:03:57.361Z,5.80
2022-10-06T22:06:23.739Z,6.08
2022-10-06T22:08:50.142Z,5.63
2022-10-06T22:11:16.506Z,6.02
2022-10-06T22:13:42.858Z,6.08
2022-10-06T22:16:09.305Z,5.77
2022-10-06T22:18:35.709Z,5.70
2022-10-06T22:21:02.084Z,6.08
2022-10-06T22:23:28.437Z,5.70
2022-10-06T22:25:54.793Z,5.47
2022-10-06T22:28:21.213Z,5.46
2022-10-06T22:30:47.649Z,5.73
2022-10-06T22:33:14.032Z,5.57
2022-10-06T22:35:40.405Z,5.64
2022-10-06T22:38:06.790Z,5.53
2022-10-06T22:40:33.151Z,5.83
2022-10-06T22:42:59.524Z,5.86
2022-10-06T22:45:25.899Z,5.38
2022-10-06T22:47:52.266Z,5.62
2022-10-06T22:50:18.652Z,5.80
2022-10-06T22:52:45.023Z,5.88
2022-10-06T22:55:11.392Z,5.92
2022-10-06T22:57:37.771Z,5.85
2022-10-06T23:00:04.131Z,5.92
2022-10-06T23:02:30.502Z,6.17
2022-10-06T23:04:56.887Z,6.02
2022-10-06T23:07:23.242Z,5.81
2022-10-06T23:09:49.637Z,5.74
2022-10-06T23:12:15.987Z,5.73
2022-10-06T23:14:42.356Z,5.69
2022-10-06T23:17:08.715Z,5.53
2022-10-06T23:19:35.082Z,6.17
2022-10-06T23:22:01.443Z,5.85
2022-10-06T23:24:27.818Z,6.10
2022-10-06T23:26:54.198Z,5.79
2022-10-06T23:29:20.552Z,6.29
2022-10-06T23:31:46.976Z,6.36
2022-10-06T23:34:13.394Z,5.73
2022-10-06T23:36:39.768Z,5.95
2022-10-06T23:39:06.154Z,6.45
2022-10-06T23:41:32.530Z,6.20
2022-10-06T23:43:58.895Z,6.14
2022-10-06T23:46:25.269Z,6.01
2022-10-06T23:48:51.647Z,6.23
2022-10-06T23:51:18.019Z,5.88
2022-10-06T23:53:44.373Z,6.31
2022-10-06T23:56:10.988Z,6.13
2022-10-06T23:58:37.433Z,6.29
